CDT,Max TemperatureF,Mean TemperatureF,Min TemperatureF,Max Dew PointF,MeanDew PointF,Min DewpointF,Max Humidity, Mean Humidity, Min Humidity, Max Sea Level PressureIn, Mean Sea Level PressureIn, Min Sea Level PressureIn, Max VisibilityMiles, Mean VisibilityMiles, Min VisibilityMiles, Max Wind SpeedMPH, Mean Wind SpeedMPH, Max Gust SpeedMPH,PrecipitationIn, CloudCover, Events, WindDirDegrees
2013-3-1,33,30,26,26,21,18,78,69,59,30.29,30.22,30.17,10,10,4,20,10,24,T,8,Snow,326
2013-3-2,40,31,21,22,20,17,88,64,40,30.35,30.29,30.25,10,8,2,15,7,20,T,4,Snow,324
2013-3-3,56,38,20,28,24,18,88,60,32,30.23,30.03,29.78,10,10,10,20,9,26,0.00,1,,172
2013-3-4,64,53,41,46,39,30,96,69,42,29.84,29.69,29.61,10,10,10,18,10,30,0.00,1,,176
2013-3-5,46,38,30,36,25,17,100,69,37,30.34,30.18,29.94,10,10,6,26,16,36,0.01,3,,324
2013-3-6,48,36,23,26,20,17,74,54,34,30.42,30.35,30.25,10,10,10,14,6,25,0.00,0,,350
2013-3-7,61,44,26,29,26,23,85,55,25,30.29,30.22,30.16,10,10,6,15,5,21,0.00,1,,153
2013-3-8,61,50,38,35,32,30,76,57,37,30.25,30.17,30.04,10,10,10,22,9,25,0.00,4,,129
2013-3-9,68,60,52,59,48,33,87,65,43,30.03,29.82,29.70,10,8,3,28,13,36,0.79,7,Rain-Thunderstorm,168
2013-3-10,56,43,29,50,35,27,100,93,85,29.97,29.81,29.69,10,8,3,26,9,33,1.06,8,Rain,249
2013-3-11,45,36,26,28,25,19,92,65,37,30.07,29.99,29.93,10,10,9,17,8,24,0.00,5,,283
2013-3-12,56,41,26,32,27,19,92,61,30,30.33,30.20,30.07,10,10,9,17,7,24,0.00,3,,302
2013-3-13,52,37,22,27,21,14,92,57,22,30.49,30.42,30.34,10,10,10,14,3,17,0.00,1,,307
2013-3-14,70,49,27,41,32,25,92,62,31,30.38,30.24,30.13,10,10,10,23,8,32,0.12,0,,214
2013-3-15,79,64,49,47,44,41,71,50,28,30.12,29.95,29.79,10,10,10,28,13,35,0.00,0,,208
2013-3-16,76,66,55,50,46,41,60,49,38,29.84,29.79,29.73,10,10,10,21,9,28,0.00,2,,193
2013-3-17,56,49,42,51,45,39,100,80,59,29.86,29.75,29.66,10,6,2,15,7,26,0.11,8,Rain,48
2013-3-18,54,43,31,46,40,30,100,73,46,30.07,29.86,29.70,10,8,2,16,6,20,0.02,5,,302
2013-3-19,57,42,28,32,24,16,96,55,22,30.26,30.15,30.06,10,10,10,9,2,,0.00,1,,66
2013-3-20,49,38,27,30,23,16,100,65,29,30.37,30.25,30.14,10,10,10,18,5,25,0.00,1,,339
2013-3-21,44,37,29,34,28,11,100,64,27,30.12,29.90,29.80,10,8,2,15,8,21,0.35,7,Rain-Snow-Thunderstorm,87
2013-3-22,45,40,34,40,36,33,100,92,83,29.94,29.86,29.80,10,9,3,12,5,20,0.30,8,Rain-Thunderstorm,58
2013-3-23,44,41,37,43,38,35,100,95,89,29.90,29.84,29.71,10,6,2,13,4,17,0.02,8,Rain,56
2013-3-24,41,33,25,41,30,18,100,84,68,30.16,29.86,29.66,10,7,2,25,14,37,0.04,7,Rain-Snow,287
2013-3-25,34,29,24,27,21,18,81,71,61,30.37,30.24,30.14,10,8,2,20,10,28,T,6,Snow,300
2013-3-26,44,31,18,24,21,18,92,68,43,30.45,30.39,30.34,10,10,10,14,4,18,0.00,1,,313
2013-3-27,60,41,21,31,24,20,100,62,24,30.36,30.27,30.17,10,10,10,17,4,23,0.00,1,,174
2013-3-28,68,57,46,47,39,26,67,55,42,30.23,30.18,30.12,10,10,10,18,7,24,0.00,3,,181
2013-3-29,66,59,51,56,52,47,100,84,68,30.22,30.15,30.10,10,8,1,12,4,16,0.91,7,Rain-Thunderstorm,150
2013-3-30,67,59,51,57,54,51,100,84,67,30.11,29.99,29.89,10,9,2,23,6,30,0.85,6,Rain-Thunderstorm,184
2013-3-31,68,55,42,54,48,40,100,71,42,30.00,29.92,29.86,10,6,0,28,4,39,0.02,3,Fog-Rain,358